sensor_id;sensor_type;location;lat;lon;timestamp;P1;durP1;ratioP1;P2;durP2;ratioP2
75413;SDS011;64758;52.122;5.404;2023-05-19T00:00:56;4.05;;;2.10;;
75413;SDS011;64758;52.122;5.404;2023-05-19T00:03:25;4.70;;;2.17;;
75413;SDS011;64758;52.122;5.404;2023-05-19T00:05:52;5.90;;;2.38;;
75413;SDS011;64758;52.122;5.404;2023-05-19T00:08:19;5.80;;;2.25;;
75413;SDS011;64758;52.122;5.404;2023-05-19T00:10:49;6.18;;;2.28;;
75413;SDS011;64758;52.122;5.404;2023-05-19T00:13:16;8.32;;;2.50;;
75413;SDS011;64758;52.122;5.404;2023-05-19T00:15:43;5.77;;;2.37;;
75413;SDS011;64758;52.122;5.404;2023-05-19T00:18:10;7.55;;;2.85;;
75413;SDS011;64758;52.122;5.404;2023-05-19T00:20:39;6.95;;;2.75;;
75413;SDS011;64758;52.122;5.404;2023-05-19T00:23:06;7.72;;;2.67;;
75413;SDS011;64758;52.122;5.404;2023-05-19T00:25:33;7.10;;;2.90;;
75413;SDS011;64758;52.122;5.404;2023-05-19T00:27:59;6.03;;;2.37;;
75413;SDS011;64758;52.122;5.404;2023-05-19T00:30:30;6.18;;;2.17;;
75413;SDS011;64758;52.122;5.404;2023-05-19T00:32:57;7.70;;;2.40;;
75413;SDS011;64758;52.122;5.404;2023-05-19T00:35:24;6.15;;;2.63;;
75413;SDS011;64758;52.122;5.404;2023-05-19T00:37:51;3.97;;;2.05;;
75413;SDS011;64758;52.122;5.404;2023-05-19T00:40:17;6.73;;;2.60;;
75413;SDS011;64758;52.122;5.404;2023-05-19T00:42:44;6.18;;;2.40;;
75413;SDS011;64758;52.122;5.404;2023-05-19T00:45:11;6.40;;;2.30;;
75413;SDS011;64758;52.122;5.404;2023-05-19T00:47:37;6.47;;;2.05;;
75413;SDS011;64758;52.122;5.404;2023-05-19T00:50:04;6.10;;;2.28;;
75413;SDS011;64758;52.122;5.404;2023-05-19T00:52:31;5.43;;;2.40;;
75413;SDS011;64758;52.122;5.404;2023-05-19T00:54:58;6.80;;;2.22;;
75413;SDS011;64758;52.122;5.404;2023-05-19T00:57:24;8.43;;;2.42;;
75413;SDS011;64758;52.122;5.404;2023-05-19T00:59:52;6.95;;;2.72;;
75413;SDS011;64758;52.122;5.404;2023-05-19T01:02:19;6.80;;;2.58;;
75413;SDS011;64758;52.122;5.404;2023-05-19T01:04:46;5.30;;;2.60;;
75413;SDS011;64758;52.122;5.404;2023-05-19T01:07:13;5.78;;;2.67;;
75413;SDS011;64758;52.122;5.404;2023-05-19T01:09:40;5.78;;;2.03;;
75413;SDS011;64758;52.122;5.404;2023-05-19T01:12:07;3.72;;;2.17;;
75413;SDS011;64758;52.122;5.404;2023-05-19T01:14:34;6.82;;;2.80;;
75413;SDS011;64758;52.122;5.404;2023-05-19T01:17:08;4.77;;;2.70;;
75413;SDS011;64758;52.122;5.404;2023-05-19T01:19:49;3.25;;;2.47;;
75413;SDS011;64758;52.122;5.404;2023-05-19T01:28:18;10.70;;;2.45;;
75413;SDS011;64758;52.122;5.404;2023-05-19T01:30:51;7.37;;;2.47;;
75413;SDS011;64758;52.122;5.404;2023-05-19T01:33:20;7.07;;;2.53;;
75413;SDS011;64758;52.122;5.404;2023-05-19T01:35:48;4.30;;;2.40;;
75413;SDS011;64758;52.122;5.404;2023-05-19T01:38:16;8.18;;;2.83;;
75413;SDS011;64758;52.122;5.404;2023-05-19T01:40:44;7.78;;;2.90;;
75413;SDS011;64758;52.122;5.404;2023-05-19T01:43:16;5.47;;;2.67;;
75413;SDS011;64758;52.122;5.404;2023-05-19T01:45:45;4.50;;;2.30;;
75413;SDS011;64758;52.122;5.404;2023-05-19T01:48:13;5.90;;;2.28;;
75413;SDS011;64758;52.122;5.404;2023-05-19T01:50:40;6.00;;;2.45;;
75413;SDS011;64758;52.122;5.404;2023-05-19T01:53:07;4.45;;;2.15;;
75413;SDS011;64758;52.122;5.404;2023-05-19T01:55:35;5.50;;;2.70;;
75413;SDS011;64758;52.122;5.404;2023-05-19T01:58:16;8.05;;;2.78;;
75413;SDS011;64758;52.122;5.404;2023-05-19T02:06:40;5.65;;;2.72;;
75413;SDS011;64758;52.122;5.404;2023-05-19T02:09:22;7.23;;;2.47;;
75413;SDS011;64758;52.122;5.404;2023-05-19T02:12:02;6.32;;;2.38;;
75413;SDS011;64758;52.122;5.404;2023-05-19T02:14:38;8.45;;;2.72;;
75413;SDS011;64758;52.122;5.404;2023-05-19T02:17:11;6.70;;;3.00;;
75413;SDS011;64758;52.122;5.404;2023-05-19T02:19:41;6.78;;;2.47;;
75413;SDS011;64758;52.122;5.404;2023-05-19T02:22:08;5.07;;;2.40;;
75413;SDS011;64758;52.122;5.404;2023-05-19T02:24:35;6.05;;;2.60;;
75413;SDS011;64758;52.122;5.404;2023-05-19T02:27:02;6.22;;;2.40;;
75413;SDS011;64758;52.122;5.404;2023-05-19T02:29:29;7.10;;;2.53;;
75413;SDS011;64758;52.122;5.404;2023-05-19T02:31:56;8.75;;;3.15;;
75413;SDS011;64758;52.122;5.404;2023-05-19T02:34:22;7.10;;;2.63;;
75413;SDS011;64758;52.122;5.404;2023-05-19T02:36:49;8.40;;;2.80;;
75413;SDS011;64758;52.122;5.404;2023-05-19T02:39:15;6.03;;;2.53;;
75413;SDS011;64758;52.122;5.404;2023-05-19T02:41:42;7.10;;;2.88;;
75413;SDS011;64758;52.122;5.404;2023-05-19T02:44:08;3.90;;;2.65;;
75413;SDS011;64758;52.122;5.404;2023-05-19T02:46:35;6.93;;;2.70;;
75413;SDS011;64758;52.122;5.404;2023-05-19T02:49:02;7.95;;;2.60;;
75413;SDS011;64758;52.122;5.404;2023-05-19T02:51:28;3.88;;;2.55;;
75413;SDS011;64758;52.122;5.404;2023-05-19T02:53:55;4.00;;;2.90;;
75413;SDS011;64758;52.122;5.404;2023-05-19T02:56:21;8.00;;;2.67;;
75413;SDS011;64758;52.122;5.404;2023-05-19T02:58:48;8.50;;;2.53;;
75413;SDS011;64758;52.122;5.404;2023-05-19T03:01:14;7.30;;;2.83;;
75413;SDS011;64758;52.122;5.404;2023-05-19T03:03:41;6.55;;;2.65;;
75413;SDS011;64758;52.122;5.404;2023-05-19T03:06:08;9.48;;;3.00;;
75413;SDS011;64758;52.122;5.404;2023-05-19T03:08:35;9.55;;;3.00;;
75413;SDS011;64758;52.122;5.404;2023-05-19T03:11:01;9.40;;;3.10;;
75413;SDS011;64758;52.122;5.404;2023-05-19T03:13:28;7.35;;;2.60;;
75413;SDS011;64758;52.122;5.404;2023-05-19T03:15:55;4.70;;;2.60;;
75413;SDS011;64758;52.122;5.404;2023-05-19T03:18:25;7.25;;;2.72;;
75413;SDS011;64758;52.122;5.404;2023-05-19T03:20:51;4.50;;;3.13;;
75413;SDS011;64758;52.122;5.404;2023-05-19T03:23:21;7.70;;;3.07;;
75413;SDS011;64758;52.122;5.404;2023-05-19T03:25:48;7.20;;;2.83;;
75413;SDS011;64758;52.122;5.404;2023-05-19T03:28:14;7.13;;;3.00;;
75413;SDS011;64758;52.122;5.404;2023-05-19T03:30:42;9.02;;;3.08;;
75413;SDS011;64758;52.122;5.404;2023-05-19T03:33:08;5.70;;;2.80;;
75413;SDS011;64758;52.122;5.404;2023-05-19T03:35:35;4.93;;;3.00;;
75413;SDS011;64758;52.122;5.404;2023-05-19T03:38:02;7.00;;;3.20;;
75413;SDS011;64758;52.122;5.404;2023-05-19T03:40:28;11.27;;;3.50;;
75413;SDS011;64758;52.122;5.404;2023-05-19T03:42:55;7.30;;;3.03;;
75413;SDS011;64758;52.122;5.404;2023-05-19T03:45:22;11.40;;;3.03;;
75413;SDS011;64758;52.122;5.404;2023-05-19T03:47:48;7.40;;;3.13;;
75413;SDS011;64758;52.122;5.404;2023-05-19T03:50:15;6.50;;;3.20;;
75413;SDS011;64758;52.122;5.404;2023-05-19T03:52:41;4.80;;;2.97;;
75413;SDS011;64758;52.122;5.404;2023-05-19T03:55:11;9.07;;;3.00;;
75413;SDS011;64758;52.122;5.404;2023-05-19T03:57:39;6.00;;;2.70;;
75413;SDS011;64758;52.122;5.404;2023-05-19T04:00:06;7.17;;;3.17;;
75413;SDS011;64758;52.122;5.404;2023-05-19T04:02:34;7.65;;;3.30;;
75413;SDS011;64758;52.122;5.404;2023-05-19T04:05:00;7.25;;;3.53;;
75413;SDS011;64758;52.122;5.404;2023-05-19T04:07:30;5.10;;;3.08;;
75413;SDS011;64758;52.122;5.404;2023-05-19T04:09:56;7.32;;;2.80;;
75413;SDS011;64758;52.122;5.404;2023-05-19T04:12:23;7.37;;;3.60;;
75413;SDS011;64758;52.122;5.404;2023-05-19T04:14:49;5.75;;;3.20;;
75413;SDS011;64758;52.122;5.404;2023-05-19T04:17:16;8.57;;;3.42;;
75413;SDS011;64758;52.122;5.404;2023-05-19T04:19:43;8.77;;;3.03;;
75413;SDS011;64758;52.122;5.404;2023-05-19T04:22:09;6.15;;;3.05;;
75413;SDS011;64758;52.122;5.404;2023-05-19T04:24:36;11.13;;;3.87;;
75413;SDS011;64758;52.122;5.404;2023-05-19T04:27:02;6.93;;;3.13;;
75413;SDS011;64758;52.122;5.404;2023-05-19T04:29:30;8.05;;;3.13;;
75413;SDS011;64758;52.122;5.404;2023-05-19T04:31:57;8.85;;;3.40;;
75413;SDS011;64758;52.122;5.404;2023-05-19T04:34:24;6.80;;;2.97;;
75413;SDS011;64758;52.122;5.404;2023-05-19T04:36:50;6.73;;;3.23;;
75413;SDS011;64758;52.122;5.404;2023-05-19T04:39:18;6.75;;;2.92;;
75413;SDS011;64758;52.122;5.404;2023-05-19T04:41:46;6.30;;;3.47;;
75413;SDS011;64758;52.122;5.404;2023-05-19T04:44:13;7.28;;;3.42;;
75413;SDS011;64758;52.122;5.404;2023-05-19T04:46:43;8.75;;;3.13;;
75413;SDS011;64758;52.122;5.404;2023-05-19T04:49:10;5.57;;;2.93;;
75413;SDS011;64758;52.122;5.404;2023-05-19T04:51:39;9.48;;;3.42;;
75413;SDS011;64758;52.122;5.404;2023-05-19T04:54:07;6.75;;;3.42;;
75413;SDS011;64758;52.122;5.404;2023-05-19T04:56:33;7.38;;;3.22;;
75413;SDS011;64758;52.122;5.404;2023-05-19T04:59:00;8.32;;;3.65;;
75413;SDS011;64758;52.122;5.404;2023-05-19T05:01:26;6.57;;;3.63;;
75413;SDS011;64758;52.122;5.404;2023-05-19T05:03:53;8.73;;;4.13;;
75413;SDS011;64758;52.122;5.404;2023-05-19T05:06:24;8.95;;;3.50;;
75413;SDS011;64758;52.122;5.404;2023-05-19T05:08:51;9.07;;;4.05;;
75413;SDS011;64758;52.122;5.404;2023-05-19T05:11:18;9.88;;;4.20;;
75413;SDS011;64758;52.122;5.404;2023-05-19T05:13:45;8.30;;;4.07;;
75413;SDS011;64758;52.122;5.404;2023-05-19T05:16:12;6.72;;;3.90;;
75413;SDS011;64758;52.122;5.404;2023-05-19T05:18:40;10.30;;;3.85;;
75413;SDS011;64758;52.122;5.404;2023-05-19T05:21:10;7.43;;;3.85;;
75413;SDS011;64758;52.122;5.404;2023-05-19T05:23:37;6.65;;;3.70;;
75413;SDS011;64758;52.122;5.404;2023-05-19T05:26:06;11.70;;;3.90;;
75413;SDS011;64758;52.122;5.404;2023-05-19T05:28:38;6.25;;;3.88;;
75413;SDS011;64758;52.122;5.404;2023-05-19T05:31:04;10.43;;;3.92;;
75413;SDS011;64758;52.122;5.404;2023-05-19T05:33:31;10.45;;;4.30;;
75413;SDS011;64758;52.122;5.404;2023-05-19T05:35:57;11.98;;;3.92;;
75413;SDS011;64758;52.122;5.404;2023-05-19T05:38:24;6.40;;;3.50;;
75413;SDS011;64758;52.122;5.404;2023-05-19T05:40:51;10.00;;;4.45;;
75413;SDS011;64758;52.122;5.404;2023-05-19T05:43:17;10.90;;;4.05;;
75413;SDS011;64758;52.122;5.404;2023-05-19T05:45:44;11.77;;;5.10;;
75413;SDS011;64758;52.122;5.404;2023-05-19T05:48:10;8.38;;;3.72;;
75413;SDS011;64758;52.122;5.404;2023-05-19T05:50:37;10.20;;;4.20;;
75413;SDS011;64758;52.122;5.404;2023-05-19T05:53:04;11.45;;;4.03;;
75413;SDS011;64758;52.122;5.404;2023-05-19T05:55:32;11.38;;;4.55;;
75413;SDS011;64758;52.122;5.404;2023-05-19T05:57:59;7.85;;;3.92;;
75413;SDS011;64758;52.122;5.404;2023-05-19T06:00:27;11.00;;;4.30;;
75413;SDS011;64758;52.122;5.404;2023-05-19T06:02:55;9.90;;;4.27;;
75413;SDS011;64758;52.122;5.404;2023-05-19T06:05:22;9.60;;;4.47;;
75413;SDS011;64758;52.122;5.404;2023-05-19T06:07:50;9.07;;;4.38;;
75413;SDS011;64758;52.122;5.404;2023-05-19T06:10:16;9.82;;;4.50;;
75413;SDS011;64758;52.122;5.404;2023-05-19T06:12:43;7.22;;;4.40;;
75413;SDS011;64758;52.122;5.404;2023-05-19T06:15:09;7.73;;;3.97;;
75413;SDS011;64758;52.122;5.404;2023-05-19T06:17:36;14.32;;;4.90;;
75413;SDS011;64758;52.122;5.404;2023-05-19T06:20:03;10.50;;;4.55;;
75413;SDS011;64758;52.122;5.404;2023-05-19T06:22:31;11.20;;;4.30;;
75413;SDS011;64758;52.122;5.404;2023-05-19T06:24:57;9.27;;;4.00;;
75413;SDS011;64758;52.122;5.404;2023-05-19T06:27:24;9.17;;;4.47;;
75413;SDS011;64758;52.122;5.404;2023-05-19T06:29:51;8.98;;;4.57;;
75413;SDS011;64758;52.122;5.404;2023-05-19T06:32:18;9.45;;;4.55;;
75413;SDS011;64758;52.122;5.404;2023-05-19T06:34:45;10.95;;;4.70;;
75413;SDS011;64758;52.122;5.404;2023-05-19T06:37:11;11.43;;;4.22;;
75413;SDS011;64758;52.122;5.404;2023-05-19T06:39:40;7.73;;;4.53;;
75413;SDS011;64758;52.122;5.404;2023-05-19T06:42:06;7.82;;;4.03;;
75413;SDS011;64758;52.122;5.404;2023-05-19T06:44:33;11.05;;;4.50;;
75413;SDS011;64758;52.122;5.404;2023-05-19T06:46:59;7.97;;;4.53;;
75413;SDS011;64758;52.122;5.404;2023-05-19T06:49:26;7.15;;;4.28;;
75413;SDS011;64758;52.122;5.404;2023-05-19T06:51:54;8.97;;;4.47;;
75413;SDS011;64758;52.122;5.404;2023-05-19T06:54:21;13.15;;;4.63;;
75413;SDS011;64758;52.122;5.404;2023-05-19T06:56:47;7.75;;;4.28;;
75413;SDS011;64758;52.122;5.404;2023-05-19T06:59:14;10.07;;;4.43;;
75413;SDS011;64758;52.122;5.404;2023-05-19T07:01:41;11.25;;;4.40;;
75413;SDS011;64758;52.122;5.404;2023-05-19T07:04:07;9.27;;;4.70;;
75413;SDS011;64758;52.122;5.404;2023-05-19T07:06:34;10.70;;;4.72;;
75413;SDS011;64758;52.122;5.404;2023-05-19T07:09:00;8.10;;;4.45;;
75413;SDS011;64758;52.122;5.404;2023-05-19T07:11:30;8.73;;;4.10;;
75413;SDS011;64758;52.122;5.404;2023-05-19T07:13:57;10.52;;;4.40;;
75413;SDS011;64758;52.122;5.404;2023-05-19T07:16:23;7.70;;;3.97;;
75413;SDS011;64758;52.122;5.404;2023-05-19T07:18:50;7.25;;;3.92;;
75413;SDS011;64758;52.122;5.404;2023-05-19T07:21:17;7.63;;;3.85;;
75413;SDS011;64758;52.122;5.404;2023-05-19T07:23:43;9.07;;;4.22;;
75413;SDS011;64758;52.122;5.404;2023-05-19T07:26:10;8.77;;;4.20;;
75413;SDS011;64758;52.122;5.404;2023-05-19T07:28:36;8.17;;;3.70;;
75413;SDS011;64758;52.122;5.404;2023-05-19T07:31:06;7.72;;;3.45;;
75413;SDS011;64758;52.122;5.404;2023-05-19T07:33:33;10.18;;;4.00;;
75413;SDS011;64758;52.122;5.404;2023-05-19T07:35:59;10.85;;;3.75;;
75413;SDS011;64758;52.122;5.404;2023-05-19T07:38:26;7.40;;;3.47;;
75413;SDS011;64758;52.122;5.404;2023-05-19T07:40:53;9.83;;;3.23;;
75413;SDS011;64758;52.122;5.404;2023-05-19T07:43:20;5.72;;;2.80;;
75413;SDS011;64758;52.122;5.404;2023-05-19T07:45:47;7.95;;;2.97;;
75413;SDS011;64758;52.122;5.404;2023-05-19T07:48:13;6.47;;;2.80;;
75413;SDS011;64758;52.122;5.404;2023-05-19T07:50:40;7.50;;;3.03;;
75413;SDS011;64758;52.122;5.404;2023-05-19T07:53:06;7.03;;;2.87;;
75413;SDS011;64758;52.122;5.404;2023-05-19T07:55:33;6.18;;;3.35;;
75413;SDS011;64758;52.122;5.404;2023-05-19T07:57:59;5.28;;;2.80;;
75413;SDS011;64758;52.122;5.404;2023-05-19T08:00:26;5.47;;;2.30;;
75413;SDS011;64758;52.122;5.404;2023-05-19T08:02:53;6.30;;;2.28;;
75413;SDS011;64758;52.122;5.404;2023-05-19T08:05:22;6.70;;;2.23;;
75413;SDS011;64758;52.122;5.404;2023-05-19T08:07:49;5.20;;;2.50;;
75413;SDS011;64758;52.122;5.404;2023-05-19T08:10:15;5.07;;;2.17;;
75413;SDS011;64758;52.122;5.404;2023-05-19T08:12:42;8.35;;;2.30;;
75413;SDS011;64758;52.122;5.404;2023-05-19T08:15:09;8.60;;;1.88;;
75413;SDS011;64758;52.122;5.404;2023-05-19T08:17:36;8.83;;;2.30;;
75413;SDS011;64758;52.122;5.404;2023-05-19T08:20:04;7.93;;;1.92;;
75413;SDS011;64758;52.122;5.404;2023-05-19T08:22:33;4.03;;;1.80;;
75413;SDS011;64758;52.122;5.404;2023-05-19T08:24:59;8.73;;;1.65;;
75413;SDS011;64758;52.122;5.404;2023-05-19T08:27:26;5.40;;;1.40;;
75413;SDS011;64758;52.122;5.404;2023-05-19T08:29:53;5.40;;;1.30;;
75413;SDS011;64758;52.122;5.404;2023-05-19T08:32:20;3.08;;;1.27;;
75413;SDS011;64758;52.122;5.404;2023-05-19T08:34:47;3.65;;;1.60;;
75413;SDS011;64758;52.122;5.404;2023-05-19T08:37:13;6.03;;;1.52;;
75413;SDS011;64758;52.122;5.404;2023-05-19T08:39:40;4.53;;;1.50;;
75413;SDS011;64758;52.122;5.404;2023-05-19T08:42:07;4.27;;;1.07;;
75413;SDS011;64758;52.122;5.404;2023-05-19T08:44:37;3.58;;;1.30;;
75413;SDS011;64758;52.122;5.404;2023-05-19T08:47:05;9.48;;;1.50;;
75413;SDS011;64758;52.122;5.404;2023-05-19T08:49:44;3.97;;;0.93;;
75413;SDS011;64758;52.122;5.404;2023-05-19T08:52:34;3.20;;;1.08;;
75413;SDS011;64758;52.122;5.404;2023-05-19T08:55:17;5.40;;;1.30;;
75413;SDS011;64758;52.122;5.404;2023-05-19T08:58:03;2.97;;;0.95;;
75413;SDS011;64758;52.122;5.404;2023-05-19T09:00:30;3.20;;;1.10;;
75413;SDS011;64758;52.122;5.404;2023-05-19T09:02:58;5.00;;;1.42;;
75413;SDS011;64758;52.122;5.404;2023-05-19T09:05:43;4.07;;;0.98;;
75413;SDS011;64758;52.122;5.404;2023-05-19T09:08:11;3.23;;;1.00;;
75413;SDS011;64758;52.122;5.404;2023-05-19T09:10:38;4.35;;;1.08;;
75413;SDS011;64758;52.122;5.404;2023-05-19T09:13:05;3.13;;;1.40;;
75413;SDS011;64758;52.122;5.404;2023-05-19T09:15:32;2.30;;;1.25;;
75413;SDS011;64758;52.122;5.404;2023-05-19T09:18:11;6.60;;;1.48;;
75413;SDS011;64758;52.122;5.404;2023-05-19T09:20:39;3.53;;;1.20;;
75413;SDS011;64758;52.122;5.404;2023-05-19T09:23:11;4.57;;;1.50;;
75413;SDS011;64758;52.122;5.404;2023-05-19T09:25:45;4.63;;;1.27;;
75413;SDS011;64758;52.122;5.404;2023-05-19T09:28:25;4.13;;;1.40;;
75413;SDS011;64758;52.122;5.404;2023-05-19T09:31:02;5.18;;;1.55;;
75413;SDS011;64758;52.122;5.404;2023-05-19T09:33:34;3.03;;;1.40;;
75413;SDS011;64758;52.122;5.404;2023-05-19T09:36:02;4.97;;;1.27;;
75413;SDS011;64758;52.122;5.404;2023-05-19T09:38:34;7.10;;;2.33;;
75413;SDS011;64758;52.122;5.404;2023-05-19T09:41:01;5.65;;;1.60;;
75413;SDS011;64758;52.122;5.404;2023-05-19T09:43:28;4.45;;;1.58;;
75413;SDS011;64758;52.122;5.404;2023-05-19T09:45:59;4.03;;;1.30;;
75413;SDS011;64758;52.122;5.404;2023-05-19T09:48:26;7.55;;;1.52;;
75413;SDS011;64758;52.122;5.404;2023-05-19T09:50:53;4.45;;;1.20;;
75413;SDS011;64758;52.122;5.404;2023-05-19T09:53:20;5.00;;;1.55;;
75413;SDS011;64758;52.122;5.404;2023-05-19T09:55:47;5.75;;;1.55;;
75413;SDS011;64758;52.122;5.404;2023-05-19T09:58:15;8.07;;;2.13;;
75413;SDS011;64758;52.122;5.404;2023-05-19T10:00:44;4.97;;;1.35;;
75413;SDS011;64758;52.122;5.404;2023-05-19T10:03:12;4.15;;;1.30;;
75413;SDS011;64758;52.122;5.404;2023-05-19T10:05:39;7.65;;;1.67;;
75413;SDS011;64758;52.122;5.404;2023-05-19T10:08:07;4.95;;;1.40;;
75413;SDS011;64758;52.122;5.404;2023-05-19T10:10:35;6.53;;;2.03;;
75413;SDS011;64758;52.122;5.404;2023-05-19T10:13:04;5.20;;;1.67;;
75413;SDS011;64758;52.122;5.404;2023-05-19T10:15:31;3.83;;;1.65;;
75413;SDS011;64758;52.122;5.404;2023-05-19T10:18:03;3.22;;;1.60;;
75413;SDS011;64758;52.122;5.404;2023-05-19T10:20:32;7.63;;;1.50;;
75413;SDS011;64758;52.122;5.404;2023-05-19T10:23:00;3.37;;;1.40;;
75413;SDS011;64758;52.122;5.404;2023-05-19T10:25:31;3.92;;;1.48;;
75413;SDS011;64758;52.122;5.404;2023-05-19T10:28:01;5.90;;;1.23;;
75413;SDS011;64758;52.122;5.404;2023-05-19T10:30:38;5.07;;;1.55;;
75413;SDS011;64758;52.122;5.404;2023-05-19T10:33:08;3.40;;;1.65;;
75413;SDS011;64758;52.122;5.404;2023-05-19T10:39:03;5.95;;;1.20;;
75413;SDS011;64758;52.122;5.404;2023-05-19T10:41:45;4.80;;;1.92;;
75413;SDS011;64758;52.122;5.404;2023-05-19T10:47:10;5.32;;;2.10;;
75413;SDS011;64758;52.122;5.404;2023-05-19T10:49:38;4.63;;;1.43;;
75413;SDS011;64758;52.122;5.404;2023-05-19T10:52:17;6.82;;;1.65;;
75413;SDS011;64758;52.122;5.404;2023-05-19T10:54:48;4.85;;;1.77;;
75413;SDS011;64758;52.122;5.404;2023-05-19T10:57:15;3.67;;;1.25;;
75413;SDS011;64758;52.122;5.404;2023-05-19T10:59:43;5.65;;;1.85;;
75413;SDS011;64758;52.122;5.404;2023-05-19T11:02:10;5.00;;;1.83;;
75413;SDS011;64758;52.122;5.404;2023-05-19T11:05:07;5.43;;;1.83;;
75413;SDS011;64758;52.122;5.404;2023-05-19T11:07:34;4.85;;;1.73;;
75413;SDS011;64758;52.122;5.404;2023-05-19T11:10:04;4.85;;;1.70;;
75413;SDS011;64758;52.122;5.404;2023-05-19T11:12:39;3.88;;;1.70;;
75413;SDS011;64758;52.122;5.404;2023-05-19T11:15:12;3.93;;;1.50;;
75413;SDS011;64758;52.122;5.404;2023-05-19T11:17:40;6.38;;;1.80;;
75413;SDS011;64758;52.122;5.404;2023-05-19T11:20:08;3.78;;;1.35;;
75413;SDS011;64758;52.122;5.404;2023-05-19T11:25:43;5.55;;;1.60;;
75413;SDS011;64758;52.122;5.404;2023-05-19T11:28:15;4.33;;;1.40;;
75413;SDS011;64758;52.122;5.404;2023-05-19T11:30:45;5.80;;;1.55;;
75413;SDS011;64758;52.122;5.404;2023-05-19T11:33:16;6.22;;;1.40;;
75413;SDS011;64758;52.122;5.404;2023-05-19T11:35:46;4.15;;;1.15;;
75413;SDS011;64758;52.122;5.404;2023-05-19T11:38:15;6.10;;;1.67;;
75413;SDS011;64758;52.122;5.404;2023-05-19T11:40:43;6.27;;;1.00;;
75413;SDS011;64758;52.122;5.404;2023-05-19T11:43:10;4.47;;;1.40;;
75413;SDS011;64758;52.122;5.404;2023-05-19T11:45:37;4.53;;;1.40;;
75413;SDS011;64758;52.122;5.404;2023-05-19T11:48:04;5.88;;;1.48;;
75413;SDS011;64758;52.122;5.404;2023-05-19T11:50:32;4.15;;;1.90;;
75413;SDS011;64758;52.122;5.404;2023-05-19T11:52:59;3.67;;;1.47;;
75413;SDS011;64758;52.122;5.404;2023-05-19T11:55:27;2.30;;;1.27;;
75413;SDS011;64758;52.122;5.404;2023-05-19T12:00:33;5.90;;;1.77;;
75413;SDS011;64758;52.122;5.404;2023-05-19T12:03:02;4.05;;;1.10;;
75413;SDS011;64758;52.122;5.404;2023-05-19T12:05:29;6.07;;;1.50;;
75413;SDS011;64758;52.122;5.404;2023-05-19T12:08:01;4.28;;;1.10;;
75413;SDS011;64758;52.122;5.404;2023-05-19T12:10:29;3.22;;;1.35;;
75413;SDS011;64758;52.122;5.404;2023-05-19T12:12:56;3.95;;;1.20;;
75413;SDS011;64758;52.122;5.404;2023-05-19T12:15:24;4.47;;;1.40;;
75413;SDS011;64758;52.122;5.404;2023-05-19T12:17:55;3.00;;;1.20;;
75413;SDS011;64758;52.122;5.404;2023-05-19T12:20:23;5.95;;;1.17;;
75413;SDS011;64758;52.122;5.404;2023-05-19T12:22:51;3.08;;;0.80;;
75413;SDS011;64758;52.122;5.404;2023-05-19T12:25:18;2.40;;;1.35;;
75413;SDS011;64758;52.122;5.404;2023-05-19T12:27:45;5.03;;;1.30;;
75413;SDS011;64758;52.122;5.404;2023-05-19T12:30:13;3.67;;;1.30;;
75413;SDS011;64758;52.122;5.404;2023-05-19T12:32:41;4.57;;;1.65;;
75413;SDS011;64758;52.122;5.404;2023-05-19T12:35:09;5.53;;;1.52;;
75413;SDS011;64758;52.122;5.404;2023-05-19T12:37:39;3.95;;;1.30;;
75413;SDS011;64758;52.122;5.404;2023-05-19T12:40:07;6.95;;;1.95;;
75413;SDS011;64758;52.122;5.404;2023-05-19T12:42:35;5.53;;;1.80;;
75413;SDS011;64758;52.122;5.404;2023-05-19T12:45:03;5.28;;;2.28;;
75413;SDS011;64758;52.122;5.404;2023-05-19T12:47:33;5.75;;;2.30;;
75413;SDS011;64758;52.122;5.404;2023-05-19T12:52:32;4.07;;;2.85;;
75413;SDS011;64758;52.122;5.404;2023-05-19T12:55:01;5.97;;;2.30;;
75413;SDS011;64758;52.122;5.404;2023-05-19T12:57:35;5.28;;;2.13;;
75413;SDS011;64758;52.122;5.404;2023-05-19T13:00:03;4.10;;;2.08;;
75413;SDS011;64758;52.122;5.404;2023-05-19T13:02:53;3.78;;;1.83;;
75413;SDS011;64758;52.122;5.404;2023-05-19T13:05:21;4.32;;;2.05;;
75413;SDS011;64758;52.122;5.404;2023-05-19T13:10:20;7.80;;;1.90;;
75413;SDS011;64758;52.122;5.404;2023-05-19T13:12:47;6.32;;;2.03;;
75413;SDS011;64758;52.122;5.404;2023-05-19T13:15:14;4.32;;;1.80;;
75413;SDS011;64758;52.122;5.404;2023-05-19T13:17:40;4.57;;;1.75;;
75413;SDS011;64758;52.122;5.404;2023-05-19T13:20:08;7.33;;;1.83;;
75413;SDS011;64758;52.122;5.404;2023-05-19T13:22:34;7.10;;;1.73;;
75413;SDS011;64758;52.122;5.404;2023-05-19T13:25:01;4.70;;;2.00;;
75413;SDS011;64758;52.122;5.404;2023-05-19T13:27:27;6.18;;;1.85;;
75413;SDS011;64758;52.122;5.404;2023-05-19T13:29:54;4.97;;;2.28;;
75413;SDS011;64758;52.122;5.404;2023-05-19T13:32:21;5.30;;;2.27;;
75413;SDS011;64758;52.122;5.404;2023-05-19T13:34:47;5.22;;;2.00;;
75413;SDS011;64758;52.122;5.404;2023-05-19T13:37:14;5.47;;;1.70;;
75413;SDS011;64758;52.122;5.404;2023-05-19T13:39:40;3.47;;;1.70;;
75413;SDS011;64758;52.122;5.404;2023-05-19T13:42:07;7.90;;;2.00;;
75413;SDS011;64758;52.122;5.404;2023-05-19T13:44:33;7.57;;;2.03;;
75413;SDS011;64758;52.122;5.404;2023-05-19T13:47:00;6.63;;;1.88;;
75413;SDS011;64758;52.122;5.404;2023-05-19T13:49:27;4.85;;;1.65;;
75413;SDS011;64758;52.122;5.404;2023-05-19T13:51:56;4.00;;;1.60;;
75413;SDS011;64758;52.122;5.404;2023-05-19T13:54:23;3.67;;;1.98;;
75413;SDS011;64758;52.122;5.404;2023-05-19T13:56:49;4.23;;;1.80;;
75413;SDS011;64758;52.122;5.404;2023-05-19T13:59:16;9.23;;;2.13;;
75413;SDS011;64758;52.122;5.404;2023-05-19T14:01:43;6.80;;;2.20;;
75413;SDS011;64758;52.122;5.404;2023-05-19T14:04:10;4.53;;;1.85;;
75413;SDS011;64758;52.122;5.404;2023-05-19T14:06:37;3.28;;;1.80;;
75413;SDS011;64758;52.122;5.404;2023-05-19T14:09:04;4.80;;;1.93;;
75413;SDS011;64758;52.122;5.404;2023-05-19T14:11:34;7.03;;;1.60;;
75413;SDS011;64758;52.122;5.404;2023-05-19T14:14:01;4.22;;;1.55;;
75413;SDS011;64758;52.122;5.404;2023-05-19T14:16:30;3.78;;;1.67;;
75413;SDS011;64758;52.122;5.404;2023-05-19T14:18:57;3.63;;;1.63;;
75413;SDS011;64758;52.122;5.404;2023-05-19T14:21:24;7.10;;;2.10;;
75413;SDS011;64758;52.122;5.404;2023-05-19T14:23:51;5.57;;;1.65;;
75413;SDS011;64758;52.122;5.404;2023-05-19T14:26:17;3.05;;;1.70;;
75413;SDS011;64758;52.122;5.404;2023-05-19T14:28:44;4.60;;;1.60;;
75413;SDS011;64758;52.122;5.404;2023-05-19T14:31:11;3.08;;;1.75;;
75413;SDS011;64758;52.122;5.404;2023-05-19T14:33:39;5.03;;;1.50;;
75413;SDS011;64758;52.122;5.404;2023-05-19T14:36:06;6.40;;;1.85;;
75413;SDS011;64758;52.122;5.404;2023-05-19T14:38:34;3.58;;;1.42;;
75413;SDS011;64758;52.122;5.404;2023-05-19T14:41:01;3.72;;;1.20;;
75413;SDS011;64758;52.122;5.404;2023-05-19T14:43:28;3.90;;;1.75;;
75413;SDS011;64758;52.122;5.404;2023-05-19T14:45:55;4.53;;;1.40;;
75413;SDS011;64758;52.122;5.404;2023-05-19T14:48:22;7.13;;;1.40;;
75413;SDS011;64758;52.122;5.404;2023-05-19T14:50:48;4.93;;;1.60;;
75413;SDS011;64758;52.122;5.404;2023-05-19T14:53:15;3.25;;;1.48;;
75413;SDS011;64758;52.122;5.404;2023-05-19T14:55:42;3.50;;;1.88;;
75413;SDS011;64758;52.122;5.404;2023-05-19T14:58:08;4.83;;;1.50;;
75413;SDS011;64758;52.122;5.404;2023-05-19T15:00:53;5.07;;;1.45;;
75413;SDS011;64758;52.122;5.404;2023-05-19T15:03:19;4.38;;;1.73;;
75413;SDS011;64758;52.122;5.404;2023-05-19T15:05:48;3.75;;;1.90;;
75413;SDS011;64758;52.122;5.404;2023-05-19T15:08:14;6.32;;;1.90;;
75413;SDS011;64758;52.122;5.404;2023-05-19T15:10:41;6.00;;;1.60;;
75413;SDS011;64758;52.122;5.404;2023-05-19T15:13:08;5.53;;;2.03;;
75413;SDS011;64758;52.122;5.404;2023-05-19T15:15:34;5.97;;;1.70;;
75413;SDS011;64758;52.122;5.404;2023-05-19T15:18:01;5.90;;;1.88;;
75413;SDS011;64758;52.122;5.404;2023-05-19T15:20:27;3.30;;;1.73;;